sensor_id;sensor_type;location;lat;lon;timestamp;temperature;humidity
70867;HTU21D;58487;53.474;49.470;2024-02-26T00:00:41;-13.63;65.10
70867;HTU21D;58487;53.474;49.470;2024-02-26T00:03:07;-13.83;65.83
70867;HTU21D;58487;53.474;49.470;2024-02-26T00:05:33;-13.92;66.02
70867;HTU21D;58487;53.474;49.470;2024-02-26T00:07:59;-13.96;66.27
70867;HTU21D;58487;53.474;49.470;2024-02-26T00:10:25;-13.98;66.20
70867;HTU21D;58487;53.474;49.470;2024-02-26T00:12:52;-14.00;66.32
70867;HTU21D;58487;53.474;49.470;2024-02-26T00:15:18;-13.96;66.08
70867;HTU21D;58487;53.474;49.470;2024-02-26T00:17:44;-13.99;65.71
70867;HTU21D;58487;53.474;49.470;2024-02-26T00:20:10;-14.00;66.05
70867;HTU21D;58487;53.474;49.470;2024-02-26T00:22:37;-14.00;65.69
70867;HTU21D;58487;53.474;49.470;2024-02-26T00:25:04;-14.11;65.72
70867;HTU21D;58487;53.474;49.470;2024-02-26T00:27:30;-14.12;65.72
70867;HTU21D;58487;53.474;49.470;2024-02-26T00:29:56;-14.16;65.57
70867;HTU21D;58487;53.474;49.470;2024-02-26T00:32:22;-14.07;65.18
70867;HTU21D;58487;53.474;49.470;2024-02-26T00:34:49;-14.03;64.69
70867;HTU21D;58487;53.474;49.470;2024-02-26T00:37:16;-14.12;64.72
70867;HTU21D;58487;53.474;49.470;2024-02-26T00:39:42;-14.11;65.12
70867;HTU21D;58487;53.474;49.470;2024-02-26T00:42:08;-14.12;64.99
70867;HTU21D;58487;53.474;49.470;2024-02-26T00:44:34;-14.08;64.76
70867;HTU21D;58487;53.474;49.470;2024-02-26T00:47:00;-14.14;64.62
70867;HTU21D;58487;53.474;49.470;2024-02-26T00:49:27;-14.03;64.42
70867;HTU21D;58487;53.474;49.470;2024-02-26T00:51:54;-13.86;64.64
70867;HTU21D;58487;53.474;49.470;2024-02-26T00:54:20;-13.73;63.93
70867;HTU21D;58487;53.474;49.470;2024-02-26T00:56:46;-13.84;64.43
70867;HTU21D;58487;53.474;49.470;2024-02-26T00:59:12;-13.90;64.71
70867;HTU21D;58487;53.474;49.470;2024-02-26T01:01:39;-13.96;65.14
70867;HTU21D;58487;53.474;49.470;2024-02-26T01:04:05;-14.13;65.58
70867;HTU21D;58487;53.474;49.470;2024-02-26T01:06:31;-14.27;66.00
70867;HTU21D;58487;53.474;49.470;2024-02-26T01:08:58;-14.36;66.79
70867;HTU21D;58487;53.474;49.470;2024-02-26T01:11:25;-14.41;67.01
70867;HTU21D;58487;53.474;49.470;2024-02-26T01:13:51;-14.65;67.40
70867;HTU21D;58487;53.474;49.470;2024-02-26T01:16:25;-14.61;68.19
70867;HTU21D;58487;53.474;49.470;2024-02-26T01:18:51;-14.69;68.37
70867;HTU21D;58487;53.474;49.470;2024-02-26T01:21:17;-14.56;68.52
70867;HTU21D;58487;53.474;49.470;2024-02-26T01:23:43;-14.45;68.23
70867;HTU21D;58487;53.474;49.470;2024-02-26T01:26:09;-14.45;67.58
70867;HTU21D;58487;53.474;49.470;2024-02-26T01:28:35;-14.42;67.97
70867;HTU21D;58487;53.474;49.470;2024-02-26T01:31:01;-14.41;68.16
70867;HTU21D;58487;53.474;49.470;2024-02-26T01:33:31;-14.41;67.77
70867;HTU21D;58487;53.474;49.470;2024-02-26T01:35:57;-14.39;67.80
70867;HTU21D;58487;53.474;49.470;2024-02-26T01:38:23;-14.35;67.41
70867;HTU21D;58487;53.474;49.470;2024-02-26T01:40:49;-14.23;66.85
70867;HTU21D;58487;53.474;49.470;2024-02-26T01:43:15;-14.18;66.23
70867;HTU21D;58487;53.474;49.470;2024-02-26T01:45:41;-14.13;65.91
70867;HTU21D;58487;53.474;49.470;2024-02-26T01:48:07;-14.10;65.33
70867;HTU21D;58487;53.474;49.470;2024-02-26T01:50:34;-14.10;64.98
70867;HTU21D;58487;53.474;49.470;2024-02-26T01:53:00;-14.14;65.01
70867;HTU21D;58487;53.474;49.470;2024-02-26T01:55:26;-14.22;65.10
70867;HTU21D;58487;53.474;49.470;2024-02-26T01:57:53;-14.29;64.95
70867;HTU21D;58487;53.474;49.470;2024-02-26T02:00:20;-14.35;64.94
70867;HTU21D;58487;53.474;49.470;2024-02-26T02:02:52;-14.39;64.82
70867;HTU21D;58487;53.474;49.470;2024-02-26T02:05:20;-14.39;64.56
70867;HTU21D;58487;53.474;49.470;2024-02-26T02:07:46;-14.35;64.42
70867;HTU21D;58487;53.474;49.470;2024-02-26T02:10:15;-14.23;64.44
70867;HTU21D;58487;53.474;49.470;2024-02-26T02:12:41;-14.11;64.10
70867;HTU21D;58487;53.474;49.470;2024-02-26T02:15:08;-14.01;63.66
70867;HTU21D;58487;53.474;49.470;2024-02-26T02:17:34;-13.92;63.15
70867;HTU21D;58487;53.474;49.470;2024-02-26T02:20:00;-13.89;62.89
70867;HTU21D;58487;53.474;49.470;2024-02-26T02:22:27;-13.90;62.63
70867;HTU21D;58487;53.474;49.470;2024-02-26T02:24:53;-13.93;62.70
70867;HTU21D;58487;53.474;49.470;2024-02-26T02:27:20;-13.99;63.20
70867;HTU21D;58487;53.474;49.470;2024-02-26T02:29:46;-14.05;62.66
70867;HTU21D;58487;53.474;49.470;2024-02-26T02:32:13;-14.11;62.28
70867;HTU21D;58487;53.474;49.470;2024-02-26T02:34:41;-14.19;62.28
70867;HTU21D;58487;53.474;49.470;2024-02-26T02:37:07;-14.28;62.36
70867;HTU21D;58487;53.474;49.470;2024-02-26T02:39:33;-14.35;64.10
70867;HTU21D;58487;53.474;49.470;2024-02-26T02:41:59;-14.28;64.37
70867;HTU21D;58487;53.474;49.470;2024-02-26T02:44:25;-14.11;62.68
70867;HTU21D;58487;53.474;49.470;2024-02-26T02:46:51;-14.03;61.56
70867;HTU21D;58487;53.474;49.470;2024-02-26T02:49:19;-14.03;61.55
70867;HTU21D;58487;53.474;49.470;2024-02-26T02:51:45;-13.98;61.37
70867;HTU21D;58487;53.474;49.470;2024-02-26T02:54:11;-13.98;61.04
70867;HTU21D;58487;53.474;49.470;2024-02-26T02:56:37;-14.02;61.42
70867;HTU21D;58487;53.474;49.470;2024-02-26T02:59:03;-14.11;61.89
70867;HTU21D;58487;53.474;49.470;2024-02-26T03:01:29;-14.17;61.60
70867;HTU21D;58487;53.474;49.470;2024-02-26T03:03:55;-14.15;61.44
70867;HTU21D;58487;53.474;49.470;2024-02-26T03:06:21;-14.12;60.91
70867;HTU21D;58487;53.474;49.470;2024-02-26T03:08:49;-14.25;60.75
70867;HTU21D;58487;53.474;49.470;2024-02-26T03:11:16;-14.50;61.57
70867;HTU21D;58487;53.474;49.470;2024-02-26T03:13:42;-14.65;62.66
70867;HTU21D;58487;53.474;49.470;2024-02-26T03:16:08;-14.61;62.82
70867;HTU21D;58487;53.474;49.470;2024-02-26T03:18:34;-14.58;62.75
70867;HTU21D;58487;53.474;49.470;2024-02-26T03:21:01;-14.64;62.58
70867;HTU21D;58487;53.474;49.470;2024-02-26T03:23:28;-14.72;62.55
70867;HTU21D;58487;53.474;49.470;2024-02-26T03:25:55;-14.82;62.72
70867;HTU21D;58487;53.474;49.470;2024-02-26T03:28:21;-14.91;62.87
70867;HTU21D;58487;53.474;49.470;2024-02-26T03:30:47;-14.94;62.76
70867;HTU21D;58487;53.474;49.470;2024-02-26T03:33:14;-15.02;62.83
70867;HTU21D;58487;53.474;49.470;2024-02-26T03:35:40;-15.01;62.75
70867;HTU21D;58487;53.474;49.470;2024-02-26T03:38:06;-15.09;63.03
70867;HTU21D;58487;53.474;49.470;2024-02-26T03:40:32;-15.03;63.44
70867;HTU21D;58487;53.474;49.470;2024-02-26T03:42:58;-15.01;63.13
70867;HTU21D;58487;53.474;49.470;2024-02-26T03:45:25;-14.94;62.55
70867;HTU21D;58487;53.474;49.470;2024-02-26T03:47:52;-14.85;62.44
70867;HTU21D;58487;53.474;49.470;2024-02-26T03:50:18;-14.72;61.76
70867;HTU21D;58487;53.474;49.470;2024-02-26T03:52:44;-14.64;60.93
70867;HTU21D;58487;53.474;49.470;2024-02-26T03:55:10;-14.57;60.25
70867;HTU21D;58487;53.474;49.470;2024-02-26T03:57:36;-14.49;59.86
70867;HTU21D;58487;53.474;49.470;2024-02-26T04:00:02;-14.50;59.61
70867;HTU21D;58487;53.474;49.470;2024-02-26T04:02:29;-14.35;59.30
70867;HTU21D;58487;53.474;49.470;2024-02-26T04:04:54;-14.34;58.87
70867;HTU21D;58487;53.474;49.470;2024-02-26T04:07:20;-14.40;58.48
70867;HTU21D;58487;53.474;49.470;2024-02-26T04:09:48;-14.33;58.15
70867;HTU21D;58487;53.474;49.470;2024-02-26T04:12:14;-14.31;57.91
70867;HTU21D;58487;53.474;49.470;2024-02-26T04:14:40;-14.33;57.73
70867;HTU21D;58487;53.474;49.470;2024-02-26T04:17:06;-14.40;57.93
70867;HTU21D;58487;53.474;49.470;2024-02-26T04:19:32;-14.34;57.45
70867;HTU21D;58487;53.474;49.470;2024-02-26T04:21:59;-14.30;57.43
70867;HTU21D;58487;53.474;49.470;2024-02-26T04:24:25;-14.17;56.85
70867;HTU21D;58487;53.474;49.470;2024-02-26T04:26:51;-14.12;56.54
70867;HTU21D;58487;53.474;49.470;2024-02-26T04:29:17;-14.07;56.35
70867;HTU21D;58487;53.474;49.470;2024-02-26T04:31:43;-14.02;56.22
70867;HTU21D;58487;53.474;49.470;2024-02-26T04:34:09;-14.03;56.18
70867;HTU21D;58487;53.474;49.470;2024-02-26T04:36:35;-13.95;55.89
70867;HTU21D;58487;53.474;49.470;2024-02-26T04:39:01;-13.95;55.94
70867;HTU21D;58487;53.474;49.470;2024-02-26T04:41:29;-13.95;55.94
70867;HTU21D;58487;53.474;49.470;2024-02-26T04:43:55;-13.92;55.97
70867;HTU21D;58487;53.474;49.470;2024-02-26T04:46:23;-13.87;55.66
70867;HTU21D;58487;53.474;49.470;2024-02-26T04:48:50;-13.90;55.85
70867;HTU21D;58487;53.474;49.470;2024-02-26T04:51:16;-13.89;56.27
70867;HTU21D;58487;53.474;49.470;2024-02-26T04:53:42;-13.87;56.59
70867;HTU21D;58487;53.474;49.470;2024-02-26T04:56:08;-13.90;56.83
70867;HTU21D;58487;53.474;49.470;2024-02-26T04:58:34;-13.91;56.51
70867;HTU21D;58487;53.474;49.470;2024-02-26T05:01:00;-13.81;56.19
70867;HTU21D;58487;53.474;49.470;2024-02-26T05:03:26;-13.69;55.52
70867;HTU21D;58487;53.474;49.470;2024-02-26T05:05:52;-13.56;55.27
70867;HTU21D;58487;53.474;49.470;2024-02-26T05:08:18;-13.48;54.69
70867;HTU21D;58487;53.474;49.470;2024-02-26T05:10:48;-13.40;54.51
70867;HTU21D;58487;53.474;49.470;2024-02-26T05:13:14;-13.33;54.55
70867;HTU21D;58487;53.474;49.470;2024-02-26T05:15:41;-13.14;54.15
70867;HTU21D;58487;53.474;49.470;2024-02-26T05:18:07;-12.95;53.17
70867;HTU21D;58487;53.474;49.470;2024-02-26T05:20:33;-12.69;52.44
70867;HTU21D;58487;53.474;49.470;2024-02-26T05:23:02;-12.45;51.32
70867;HTU21D;58487;53.474;49.470;2024-02-26T05:25:29;-12.24;50.77
70867;HTU21D;58487;53.474;49.470;2024-02-26T05:27:56;-12.11;49.80
70867;HTU21D;58487;53.474;49.470;2024-02-26T05:30:22;-12.09;50.11
70867;HTU21D;58487;53.474;49.470;2024-02-26T05:32:48;-12.00;49.97
70867;HTU21D;58487;53.474;49.470;2024-02-26T05:35:14;-11.93;49.59
70867;HTU21D;58487;53.474;49.470;2024-02-26T05:37:40;-11.88;49.52
70867;HTU21D;58487;53.474;49.470;2024-02-26T05:40:07;-11.91;49.67
70867;HTU21D;58487;53.474;49.470;2024-02-26T05:42:33;-11.97;49.85
70867;HTU21D;58487;53.474;49.470;2024-02-26T05:44:59;-11.96;49.86
70867;HTU21D;58487;53.474;49.470;2024-02-26T05:47:25;-12.06;50.12
70867;HTU21D;58487;53.474;49.470;2024-02-26T05:49:54;-12.07;50.40
70867;HTU21D;58487;53.474;49.470;2024-02-26T05:52:20;-11.93;50.07
70867;HTU21D;58487;53.474;49.470;2024-02-26T05:54:46;-11.74;50.00
70867;HTU21D;58487;53.474;49.470;2024-02-26T05:57:12;-11.75;49.83
70867;HTU21D;58487;53.474;49.470;2024-02-26T05:59:38;-11.79;49.75
70867;HTU21D;58487;53.474;49.470;2024-02-26T06:02:04;-11.95;50.36
70867;HTU21D;58487;53.474;49.470;2024-02-26T06:04:31;-11.81;49.86
70867;HTU21D;58487;53.474;49.470;2024-02-26T06:06:57;-11.66;49.44
70867;HTU21D;58487;53.474;49.470;2024-02-26T06:09:23;-11.58;49.18
70867;HTU21D;58487;53.474;49.470;2024-02-26T06:11:49;-11.44;49.28
70867;HTU21D;58487;53.474;49.470;2024-02-26T06:14:15;-11.48;49.15
70867;HTU21D;58487;53.474;49.470;2024-02-26T06:16:44;-11.31;48.70
70867;HTU21D;58487;53.474;49.470;2024-02-26T06:19:10;-11.26;48.70
70867;HTU21D;58487;53.474;49.470;2024-02-26T06:21:36;-11.07;48.36
70867;HTU21D;58487;53.474;49.470;2024-02-26T06:24:03;-10.99;47.81
70867;HTU21D;58487;53.474;49.470;2024-02-26T06:26:29;-10.92;47.97
70867;HTU21D;58487;53.474;49.470;2024-02-26T06:28:55;-10.92;47.70
70867;HTU21D;58487;53.474;49.470;2024-02-26T06:31:22;-11.01;48.02
70867;HTU21D;58487;53.474;49.470;2024-02-26T06:33:49;-10.89;47.92
70867;HTU21D;58487;53.474;49.470;2024-02-26T06:36:17;-10.94;47.83
70867;HTU21D;58487;53.474;49.470;2024-02-26T06:38:44;-10.97;47.94
70867;HTU21D;58487;53.474;49.470;2024-02-26T06:41:10;-10.88;47.96
70867;HTU21D;58487;53.474;49.470;2024-02-26T06:43:37;-10.63;47.38
70867;HTU21D;58487;53.474;49.470;2024-02-26T06:46:03;-10.32;46.53
70867;HTU21D;58487;53.474;49.470;2024-02-26T06:48:29;-10.11;45.95
70867;HTU21D;58487;53.474;49.470;2024-02-26T06:50:55;-10.01;45.72
70867;HTU21D;58487;53.474;49.470;2024-02-26T06:53:21;-10.13;45.68
70867;HTU21D;58487;53.474;49.470;2024-02-26T06:55:47;-10.17;45.83
70867;HTU21D;58487;53.474;49.470;2024-02-26T06:58:16;-10.25;46.06
70867;HTU21D;58487;53.474;49.470;2024-02-26T07:00:42;-10.35;46.19
70867;HTU21D;58487;53.474;49.470;2024-02-26T07:03:08;-10.37;46.36
70867;HTU21D;58487;53.474;49.470;2024-02-26T07:05:33;-10.35;46.19
70867;HTU21D;58487;53.474;49.470;2024-02-26T07:07:59;-10.11;45.62
70867;HTU21D;58487;53.474;49.470;2024-02-26T07:10:25;-9.70;45.38
70867;HTU21D;58487;53.474;49.470;2024-02-26T07:12:51;-9.38;44.78
70867;HTU21D;58487;53.474;49.470;2024-02-26T07:15:17;-9.14;44.85
70867;HTU21D;58487;53.474;49.470;2024-02-26T07:17:44;-8.82;43.32
70867;HTU21D;58487;53.474;49.470;2024-02-26T07:20:13;-8.57;43.02
70867;HTU21D;58487;53.474;49.470;2024-02-26T07:22:40;-8.54;42.82
70867;HTU21D;58487;53.474;49.470;2024-02-26T07:25:08;-8.67;42.78
70867;HTU21D;58487;53.474;49.470;2024-02-26T07:27:37;-8.77;43.26
70867;HTU21D;58487;53.474;49.470;2024-02-26T07:30:04;-8.92;43.89
70867;HTU21D;58487;53.474;49.470;2024-02-26T07:32:30;-9.25;45.15
70867;HTU21D;58487;53.474;49.470;2024-02-26T07:34:56;-9.18;44.70
70867;HTU21D;58487;53.474;49.470;2024-02-26T07:37:22;-8.85;44.30
70867;HTU21D;58487;53.474;49.470;2024-02-26T07:39:48;-8.59;43.24
70867;HTU21D;58487;53.474;49.470;2024-02-26T07:42:14;-8.36;43.37
70867;HTU21D;58487;53.474;49.470;2024-02-26T07:44:40;-8.34;42.97
70867;HTU21D;58487;53.474;49.470;2024-02-26T07:47:09;-8.20;42.62
70867;HTU21D;58487;53.474;49.470;2024-02-26T07:49:35;-8.03;43.39
70867;HTU21D;58487;53.474;49.470;2024-02-26T07:52:01;-7.93;42.79
70867;HTU21D;58487;53.474;49.470;2024-02-26T07:54:28;-7.95;42.55
70867;HTU21D;58487;53.474;49.470;2024-02-26T07:56:54;-7.80;42.07
70867;HTU21D;58487;53.474;49.470;2024-02-26T07:59:20;-7.79;42.52
70867;HTU21D;58487;53.474;49.470;2024-02-26T08:01:50;-7.92;42.33
70867;HTU21D;58487;53.474;49.470;2024-02-26T08:04:17;-7.85;43.94
70867;HTU21D;58487;53.474;49.470;2024-02-26T08:06:43;-8.05;42.81
70867;HTU21D;58487;53.474;49.470;2024-02-26T08:09:09;-7.79;42.82
70867;HTU21D;58487;53.474;49.470;2024-02-26T08:11:35;-7.52;41.88
70867;HTU21D;58487;53.474;49.470;2024-02-26T08:14:01;-7.51;42.30
70867;HTU21D;58487;53.474;49.470;2024-02-26T08:16:28;-7.24;41.28
70867;HTU21D;58487;53.474;49.470;2024-02-26T08:18:59;-7.40;42.46
70867;HTU21D;58487;53.474;49.470;2024-02-26T08:21:27;-7.38;42.16
70867;HTU21D;58487;53.474;49.470;2024-02-26T08:23:53;-7.39;44.70
70867;HTU21D;58487;53.474;49.470;2024-02-26T08:26:20;-7.60;42.26
70867;HTU21D;58487;53.474;49.470;2024-02-26T08:28:48;-7.54;42.19
70867;HTU21D;58487;53.474;49.470;2024-02-26T08:31:14;-7.39;41.52
70867;HTU21D;58487;53.474;49.470;2024-02-26T08:33:40;-7.39;42.39
70867;HTU21D;58487;53.474;49.470;2024-02-26T08:36:08;-7.21;42.51
70867;HTU21D;58487;53.474;49.470;2024-02-26T08:38:34;-7.17;41.85
70867;HTU21D;58487;53.474;49.470;2024-02-26T08:41:02;-7.00;42.48
70867;HTU21D;58487;53.474;49.470;2024-02-26T08:43:28;-6.92;42.16
70867;HTU21D;58487;53.474;49.470;2024-02-26T08:45:54;-6.77;42.27
70867;HTU21D;58487;53.474;49.470;2024-02-26T08:48:21;-6.72;43.13
70867;HTU21D;58487;53.474;49.470;2024-02-26T08:50:48;-6.65;42.00
70867;HTU21D;58487;53.474;49.470;2024-02-26T08:53:14;-6.77;42.04
70867;HTU21D;58487;53.474;49.470;2024-02-26T08:55:40;-7.19;43.32
70867;HTU21D;58487;53.474;49.470;2024-02-26T08:58:06;-7.08;43.01
70867;HTU21D;58487;53.474;49.470;2024-02-26T09:00:32;-6.88;43.00
70867;HTU21D;58487;53.474;49.470;2024-02-26T09:02:58;-6.68;43.09
70867;HTU21D;58487;53.474;49.470;2024-02-26T09:05:29;-6.91;44.15
70867;HTU21D;58487;53.474;49.470;2024-02-26T09:08:11;-6.86;44.18
70867;HTU21D;58487;53.474;49.470;2024-02-26T09:10:38;-7.01;44.85
70867;HTU21D;58487;53.474;49.470;2024-02-26T09:13:04;-6.89;45.96
70867;HTU21D;58487;53.474;49.470;2024-02-26T09:15:30;-6.79;43.72
70867;HTU21D;58487;53.474;49.470;2024-02-26T09:17:57;-6.73;43.87
70867;HTU21D;58487;53.474;49.470;2024-02-26T09:20:23;-6.61;44.14
70867;HTU21D;58487;53.474;49.470;2024-02-26T09:22:50;-6.67;43.84
70867;HTU21D;58487;53.474;49.470;2024-02-26T09:25:19;-6.31;43.63
70867;HTU21D;58487;53.474;49.470;2024-02-26T09:27:46;-6.26;43.17
70867;HTU21D;58487;53.474;49.470;2024-02-26T09:30:13;-6.38;42.91
70867;HTU21D;58487;53.474;49.470;2024-02-26T09:32:40;-6.30;43.93
70867;HTU21D;58487;53.474;49.470;2024-02-26T09:35:06;-6.42;44.22
70867;HTU21D;58487;53.474;49.470;2024-02-26T09:37:33;-6.17;43.35
70867;HTU21D;58487;53.474;49.470;2024-02-26T09:40:00;-5.79;42.56
70867;HTU21D;58487;53.474;49.470;2024-02-26T09:42:26;-5.91;46.49
70867;HTU21D;58487;53.474;49.470;2024-02-26T09:44:55;-5.52;45.86
70867;HTU21D;58487;53.474;49.470;2024-02-26T09:47:23;-4.80;45.32
70867;HTU21D;58487;53.474;49.470;2024-02-26T09:49:51;-4.65;45.41
70867;HTU21D;58487;53.474;49.470;2024-02-26T09:52:19;-4.44;44.77
70867;HTU21D;58487;53.474;49.470;2024-02-26T09:54:49;-4.30;46.97
70867;HTU21D;58487;53.474;49.470;2024-02-26T09:57:16;-3.65;43.41
70867;HTU21D;58487;53.474;49.470;2024-02-26T09:59:43;-3.01;39.40
70867;HTU21D;58487;53.474;49.470;2024-02-26T10:02:14;-2.74;40.53
70867;HTU21D;58487;53.474;49.470;2024-02-26T10:04:40;-2.56;38.24
70867;HTU21D;58487;53.474;49.470;2024-02-26T10:07:12;-2.02;36.50
70867;HTU21D;58487;53.474;49.470;2024-02-26T10:09:38;-1.60;37.39
70867;HTU21D;58487;53.474;49.470;2024-02-26T10:12:10;-1.75;36.75
70867;HTU21D;58487;53.474;49.470;2024-02-26T10:14:37;-1.72;37.40
70867;HTU21D;58487;53.474;49.470;2024-02-26T10:17:07;-1.93;35.69
70867;HTU21D;58487;53.474;49.470;2024-02-26T10:19:34;-2.17;36.97
70867;HTU21D;58487;53.474;49.470;2024-02-26T10:22:01;-2.03;38.01
70867;HTU21D;58487;53.474;49.470;2024-02-26T10:24:28;-1.71;36.21
70867;HTU21D;58487;53.474;49.470;2024-02-26T10:26:55;-1.50;35.61
70867;HTU21D;58487;53.474;49.470;2024-02-26T10:29:23;-1.91;36.60
70867;HTU21D;58487;53.474;49.470;2024-02-26T10:31:51;-1.86;36.26
70867;HTU21D;58487;53.474;49.470;2024-02-26T10:34:18;-1.04;35.17
70867;HTU21D;58487;53.474;49.470;2024-02-26T10:36:44;-0.91;34.83
70867;HTU21D;58487;53.474;49.470;2024-02-26T10:39:16;-1.00;34.89
70867;HTU21D;58487;53.474;49.470;2024-02-26T10:41:45;-1.09;37.59
70867;HTU21D;58487;53.474;49.470;2024-02-26T10:44:12;-0.83;36.44
70867;HTU21D;58487;53.474;49.470;2024-02-26T10:46:40;-1.31;37.15
70867;HTU21D;58487;53.474;49.470;2024-02-26T10:49:13;-1.26;37.11
70867;HTU21D;58487;53.474;49.470;2024-02-26T10:51:45;-1.64;38.04
70867;HTU21D;58487;53.474;49.470;2024-02-26T10:54:15;-1.67;38.54
70867;HTU21D;58487;53.474;49.470;2024-02-26T10:56:42;-1.15;38.39
70867;HTU21D;58487;53.474;49.470;2024-02-26T10:59:12;-0.90;38.46
70867;HTU21D;58487;53.474;49.470;2024-02-26T11:01:39;-0.61;38.75
70867;HTU21D;58487;53.474;49.470;2024-02-26T11:04:08;-0.51;36.55
70867;HTU21D;58487;53.474;49.470;2024-02-26T11:06:35;-0.46;37.17
70867;HTU21D;58487;53.474;49.470;2024-02-26T11:09:02;-1.03;38.08
70867;HTU21D;58487;53.474;49.470;2024-02-26T11:11:30;-0.45;37.37
70867;HTU21D;58487;53.474;49.470;2024-02-26T11:13:57;-0.16;36.73
70867;HTU21D;58487;53.474;49.470;2024-02-26T11:16:26;0.05;34.56
70867;HTU21D;58487;53.474;49.470;2024-02-26T11:18:53;0.27;35.11
70867;HTU21D;58487;53.474;49.470;2024-02-26T11:21:21;0.59;34.74
70867;HTU21D;58487;53.474;49.470;2024-02-26T11:24:06;0.39;34.82
70867;HTU21D;58487;53.474;49.470;2024-02-26T11:26:35;-0.83;37.95
70867;HTU21D;58487;53.474;49.470;2024-02-26T11:29:05;-0.71;37.46
70867;HTU21D;58487;53.474;49.470;2024-02-26T11:31:33;-0.66;37.90
70867;HTU21D;58487;53.474;49.470;2024-02-26T11:33:59;-0.75;37.26
70867;HTU21D;58487;53.474;49.470;2024-02-26T11:36:26;-0.24;36.27
70867;HTU21D;58487;53.474;49.470;2024-02-26T11:38:52;-0.02;36.63
70867;HTU21D;58487;53.474;49.470;2024-02-26T11:41:22;0.15;36.10
70867;HTU21D;58487;53.474;49.470;2024-02-26T11:43:52;0.93;34.55
70867;HTU21D;58487;53.474;49.470;2024-02-26T11:46:29;1.01;34.28
70867;HTU21D;58487;53.474;49.470;2024-02-26T11:49:01;1.04;34.48
70867;HTU21D;58487;53.474;49.470;2024-02-26T11:51:32;0.65;34.88
70867;HTU21D;58487;53.474;49.470;2024-02-26T11:53:58;1.45;33.58
70867;HTU21D;58487;53.474;49.470;2024-02-26T11:56:25;0.17;36.02
70867;HTU21D;58487;53.474;49.470;2024-02-26T11:59:10;0.16;35.25
70867;HTU21D;58487;53.474;49.470;2024-02-26T12:01:44;-0.46;37.45
70867;HTU21D;58487;53.474;49.470;2024-02-26T12:06:48;0.27;35.85
70867;HTU21D;58487;53.474;49.470;2024-02-26T12:09:36;0.18;35.75
70867;HTU21D;58487;53.474;49.470;2024-02-26T12:12:03;0.14;36.53
70867;HTU21D;58487;53.474;49.470;2024-02-26T12:14:33;0.24;35.97
70867;HTU21D;58487;53.474;49.470;2024-02-26T12:17:02;0.07;36.56
70867;HTU21D;58487;53.474;49.470;2024-02-26T12:19:31;0.08;36.40
70867;HTU21D;58487;53.474;49.470;2024-02-26T12:21:57;-0.68;38.00
70867;HTU21D;58487;53.474;49.470;2024-02-26T12:24:23;-0.40;37.21
70867;HTU21D;58487;53.474;49.470;2024-02-26T12:26:50;-1.15;39.20
70867;HTU21D;58487;53.474;49.470;2024-02-26T12:29:16;-0.98;38.54
70867;HTU21D;58487;53.474;49.470;2024-02-26T12:31:43;-1.61;40.28
70867;HTU21D;58487;53.474;49.470;2024-02-26T12:34:09;-1.68;40.62
70867;HTU21D;58487;53.474;49.470;2024-02-26T12:36:36;-1.38;39.87
70867;HTU21D;58487;53.474;49.470;2024-02-26T12:39:02;-1.73;39.94
70867;HTU21D;58487;53.474;49.470;2024-02-26T12:41:34;-2.01;40.91
70867;HTU21D;58487;53.474;49.470;2024-02-26T12:44:01;-2.63;42.55
70867;HTU21D;58487;53.474;49.470;2024-02-26T12:46:27;-3.00;43.76
70867;HTU21D;58487;53.474;49.470;2024-02-26T12:48:58;-2.76;43.01
70867;HTU21D;58487;53.474;49.470;2024-02-26T12:51:27;-2.42;42.27
70867;HTU21D;58487;53.474;49.470;2024-02-26T12:53:55;-2.46;42.16
70867;HTU21D;58487;53.474;49.470;2024-02-26T12:56:22;-2.43;42.07
70867;HTU21D;58487;53.474;49.470;2024-02-26T12:58:50;-1.92;40.65
70867;HTU21D;58487;53.474;49.470;2024-02-26T13:01:22;-1.64;40.45
70867;HTU21D;58487;53.474;49.470;2024-02-26T13:03:50;-1.04;38.08
70867;HTU21D;58487;53.474;49.470;2024-02-26T13:06:19;-1.39;39.44
70867;HTU21D;58487;53.474;49.470;2024-02-26T13:08:47;-0.75;37.24
70867;HTU21D;58487;53.474;49.470;2024-02-26T13:11:13;-0.87;37.56
70867;HTU21D;58487;53.474;49.470;2024-02-26T13:13:40;-0.82;37.56
70867;HTU21D;58487;53.474;49.470;2024-02-26T13:16:09;-1.31;38.28
70867;HTU21D;58487;53.474;49.470;2024-02-26T13:18:47;-1.56;39.52
70867;HTU21D;58487;53.474;49.470;2024-02-26T13:21:28;-2.09;40.39
70867;HTU21D;58487;53.474;49.470;2024-02-26T13:23:55;-2.50;41.61
70867;HTU21D;58487;53.474;49.470;2024-02-26T13:26:22;-2.86;42.61
70867;HTU21D;58487;53.474;49.470;2024-02-26T13:29:01;-3.46;44.11
70867;HTU21D;58487;53.474;49.470;2024-02-26T13:31:31;-4.10;46.11
70867;HTU21D;58487;53.474;49.470;2024-02-26T13:33:57;-4.26;46.27
70867;HTU21D;58487;53.474;49.470;2024-02-26T13:36:24;-4.12;46.67
70867;HTU21D;58487;53.474;49.470;2024-02-26T13:38:55;-4.24;46.89
70867;HTU21D;58487;53.474;49.470;2024-02-26T13:41:23;-3.87;46.10
70867;HTU21D;58487;53.474;49.470;2024-02-26T13:43:50;-4.00;46.29
70867;HTU21D;58487;53.474;49.470;2024-02-26T13:46:16;-3.85;45.76
70867;HTU21D;58487;53.474;49.470;2024-02-26T13:48:43;-4.14;46.47
70867;HTU21D;58487;53.474;49.470;2024-02-26T13:51:09;-4.87;48.52
70867;HTU21D;58487;53.474;49.470;2024-02-26T13:53:38;-5.22;49.89
70867;HTU21D;58487;53.474;49.470;2024-02-26T13:56:05;-5.71;50.68
70867;HTU21D;58487;53.474;49.470;2024-02-26T13:58:34;-6.24;53.17
70867;HTU21D;58487;53.474;49.470;2024-02-26T14:01:00;-6.41;53.55
70867;HTU21D;58487;53.474;49.470;2024-02-26T14:03:34;-6.75;54.93
70867;HTU21D;58487;53.474;49.470;2024-02-26T14:06:03;-7.09;55.96
70867;HTU21D;58487;53.474;49.470;2024-02-26T14:08:32;-7.27;56.60
70867;HTU21D;58487;53.474;49.470;2024-02-26T14:10:59;-7.39;57.27
70867;HTU21D;58487;53.474;49.470;2024-02-26T14:13:31;-7.34;57.11
70867;HTU21D;58487;53.474;49.470;2024-02-26T14:16:00;-7.48;56.81
70867;HTU21D;58487;53.474;49.470;2024-02-26T14:18:26;-7.64;57.14
70867;HTU21D;58487;53.474;49.470;2024-02-26T14:20:53;-8.03;57.60
70867;HTU21D;58487;53.474;49.470;2024-02-26T14:23:22;-8.22;58.32
70867;HTU21D;58487;53.474;49.470;2024-02-26T14:25:48;-8.59;59.90
70867;HTU21D;58487;53.474;49.470;2024-02-26T14:28:14;-8.89;60.46
70867;HTU21D;58487;53.474;49.470;2024-02-26T14:30:42;-8.94;61.78
70867;HTU21D;58487;53.474;49.470;2024-02-26T14:33:09;-9.03;61.47
70867;HTU21D;58487;53.474;49.470;2024-02-26T14:35:36;-9.04;62.24
70867;HTU21D;58487;53.474;49.470;2024-02-26T14:38:04;-9.05;62.75
70867;HTU21D;58487;53.474;49.470;2024-02-26T14:40:30;-8.94;62.73
70867;HTU21D;58487;53.474;49.470;2024-02-26T14:42:57;-8.89;62.12
70867;HTU21D;58487;53.474;49.470;2024-02-26T14:45:28;-8.78;62.72
70867;HTU21D;58487;53.474;49.470;2024-02-26T14:47:54;-8.71;62.68
70867;HTU21D;58487;53.474;49.470;2024-02-26T14:50:20;-8.52;62.35
70867;HTU21D;58487;53.474;49.470;2024-02-26T14:52:46;-8.44;61.89
70867;HTU21D;58487;53.474;49.470;2024-02-26T14:55:16;-8.54;62.06
70867;HTU21D;58487;53.474;49.470;2024-02-26T14:57:42;-8.40;61.44